Map

Track Data

SID SEASON NUMBER BASIN SUBBASIN NAME ISO_TIME NATURE LAT LON WMO_WIND WMO_PRES WMO_AGENCY TRACK_TYPE DIST2LAND LANDFALL IFLAG USA_AGENCY USA_ATCF_ID USA_LAT USA_LON USA_RECORD USA_STATUS USA_WIND USA_PRES USA_SSHS USA_R34_NE USA_R34_SE USA_R34_SW USA_R34_NW USA_R50_NE USA_R50_SE USA_R50_SW USA_R50_NW USA_R64_NE USA_R64_SE USA_R64_SW USA_R64_NW USA_POCI USA_ROCI USA_RMW USA_EYE TOKYO_LAT TOKYO_LON TOKYO_GRADE TOKYO_WIND TOKYO_PRES TOKYO_R50_DIR TOKYO_R50_LONG TOKYO_R50_SHORT TOKYO_R30_DIR TOKYO_R30_LONG TOKYO_R30_SHORT TOKYO_LAND CMA_LAT CMA_LON CMA_CAT CMA_WIND CMA_PRES HKO_LAT HKO_LON HKO_CAT HKO_WIND HKO_PRES NEWDELHI_LAT NEWDELHI_LON NEWDELHI_GRADE NEWDELHI_WIND NEWDELHI_PRES NEWDELHI_CI NEWDELHI_DP NEWDELHI_POCI REUNION_LAT REUNION_LON REUNION_TYPE REUNION_WIND REUNION_PRES REUNION_TNUM REUNION_CI REUNION_RMW REUNION_R34_NE REUNION_R34_SE REUNION_R34_SW REUNION_R34_NW REUNION_R50_NE REUNION_R50_SE REUNION_R50_SW REUNION_R50_NW REUNION_R64_NE REUNION_R64_SE REUNION_R64_SW REUNION_R64_NW BOM_LAT BOM_LON BOM_TYPE BOM_WIND BOM_PRES BOM_TNUM BOM_CI BOM_RMW BOM_R34_NE BOM_R34_SE BOM_R34_SW BOM_R34_NW BOM_R50_NE BOM_R50_SE BOM_R50_SW BOM_R50_NW BOM_R64_NE BOM_R64_SE BOM_R64_SW BOM_R64_NW BOM_ROCI BOM_POCI BOM_EYE BOM_POS_METHOD BOM_PRES_METHOD NADI_LAT NADI_LON NADI_CAT NADI_WIND NADI_PRES WELLINGTON_LAT WELLINGTON_LON WELLINGTON_WIND WELLINGTON_PRES DS824_LAT DS824_LON DS824_STAGE DS824_WIND DS824_PRES TD9636_LAT TD9636_LON TD9636_STAGE TD9636_WIND TD9636_PRES TD9635_LAT TD9635_LON TD9635_WIND TD9635_PRES TD9635_ROCI NEUMANN_LAT NEUMANN_LON NEUMANN_CLASS NEUMANN_WIND NEUMANN_PRES MLC_LAT MLC_LON MLC_CLASS MLC_WIND MLC_PRES USA_GUST BOM_GUST BOM_GUST_PER REUNION_GUST REUNION_GUST_PER USA_SEAHGT USA_SEARAD_NE USA_SEARAD_SE USA_SEARAD_SW USA_SEARAD_NW STORM_SPEED STORM_DIR
1972228N10250 1972 74 EP MM ESTELLE 1972-08-15 00:00:00 TS 9.60000 -110.400 25 hurdat_epa main 1225 1205 O________OO___ hurdat_epa EP051972 9.60000 -110.400 TD 25 -1 9.60000 -110.400 TC 25 9.60000 -110.400 1 6 346
1972228N10250 1972 74 EP MM ESTELLE 1972-08-15 03:00:00 TS 9.90432 -110.478 main 1205 1184 P________PP___ EP051972 9.92509 -110.482 TD 27 -1 9.92509 -110.482 TC 27 9.82124 -110.459 1 6 341
1972228N10250 1972 74 EP MM ESTELLE 1972-08-15 06:00:00 TS 10.1708 -110.595 30 hurdat_epa main 1184 1177 O________OP___ hurdat_epa EP051972 10.2000 -110.600 TD 30 -1 10.2000 -110.600 TC 30 10.0540 -110.574 1 6 326
1972228N10250 1972 74 EP MM ESTELLE 1972-08-15 09:00:00 TS 10.3818 -110.803 main 1177 1173 P________PP___ EP051972 10.3997 -110.803 TD 30 -1 10.3997 -110.803 TC 30 10.3098 -110.802 1 7 306
1972228N10250 1972 74 EP MM ESTELLE 1972-08-15 12:00:00 TS 10.6000 -111.200 30 hurdat_epa main 1182 1179 O________OO___ hurdat_epa EP051972 10.6000 -111.200 TD 30 -1 10.6000 -111.200 TC 30 10.6000 -111.200 1 12 296
1972228N10250 1972 74 EP MM ESTELLE 1972-08-15 15:00:00 TS 10.8879 -111.867 main 1201 1199 P________PP___ EP051972 10.8777 -111.882 TD 30 -1 10.8777 -111.882 TC 30 10.9288 -111.803 1 16 293
1972228N10250 1972 74 EP MM ESTELLE 1972-08-15 18:00:00 TS 11.2148 -112.671 30 hurdat_epa main 1232 1231 O________OP___ hurdat_epa EP051972 11.2000 -112.700 TD 30 -1 11.2000 -112.700 TC 30 11.2739 -112.556 1 17 294
1972228N10250 1972 74 EP MM ESTELLE 1972-08-15 21:00:00 TS 11.5793 -113.442 main 1253 1253 P________PP___ EP051972 11.5724 -113.457 TD 35 0 11.5724 -113.457 TC 35 11.6069 -113.381 1 17 295
1972228N10250 1972 74 EP MM ESTELLE 1972-08-16 00:00:00 TS 11.9000 -114.200 40 hurdat_epa main 1291 1291 O________OO___ hurdat_epa EP051972 11.9000 -114.200 TS 40 0 11.9000 -114.200 TC 40 11.9000 -114.200 2 15 289
1972228N10250 1972 74 EP MM ESTELLE 1972-08-16 03:00:00 TS 12.0660 -114.918 main 1315 1315 P________PP___ EP051972 12.0723 -114.915 TS 40 0 12.0723 -114.915 TC 40 12.0407 -114.931 2 14 282
1972228N10250 1972 74 EP MM ESTELLE 1972-08-16 06:00:00 TS 12.1905 -115.607 40 hurdat_epa main 1335 1335 O________OP___ hurdat_epa EP051972 12.2000 -115.600 TS 40 0 12.2000 -115.600 TC 40 12.1524 -115.635 2 14 281
1972228N10250 1972 74 EP MM ESTELLE 1972-08-16 09:00:00 TS 12.3165 -116.278 main 1360 1355 P________PP___ EP051972 12.3174 -116.273 TS 40 0 12.3174 -116.273 TC 40 12.3128 -116.297 2 13 288
1972228N10250 1972 74 EP MM ESTELLE 1972-08-16 12:00:00 TS 12.6000 -116.900 40 hurdat_epa main 1363 1337 O________OO___ hurdat_epa EP051972 12.6000 -116.900 TS 40 0 12.6000 -116.900 TC 40 12.6000 -116.900 2 15 308
1972228N10250 1972 74 EP MM ESTELLE 1972-08-16 15:00:00 TS 13.2316 -117.481 main 1343 1306 P________PP___ EP051972 13.2399 -117.487 TS 40 0 13.2399 -117.487 TC 40 13.1981 -117.455 2 18 322
1972228N10250 1972 74 EP MM ESTELLE 1972-08-16 18:00:00 TS 13.9829 -117.990 40 hurdat_epa main 1304 1281 O________OP___ hurdat_epa EP051972 14.0000 -118.000 TS 40 0 14.0000 -118.000 TC 40 13.9143 -117.952 2 17 327
1972228N10250 1972 74 EP MM ESTELLE 1972-08-16 21:00:00 TS 14.6706 -118.430 main 1273 1263 P________PP___ EP051972 14.6823 -118.438 TS 40 0 14.6823 -118.438 TC 40 14.6234 -118.399 2 15 327
1972228N10250 1972 74 EP MM ESTELLE 1972-08-17 00:00:00 TS 15.2000 -118.800 40 hurdat_epa main 1263 1263 O________OO___ hurdat_epa EP051972 15.2000 -118.800 TS 40 0 15.2000 -118.800 TC 40 15.2000 -118.800 2 10 319
1972228N10250 1972 74 EP MM ESTELLE 1972-08-17 03:00:00 TS 15.4333 -119.120 main 1270 1267 P________PP___ EP051972 15.4248 -119.108 TS 40 0 15.4248 -119.108 TC 40 15.4672 -119.170 2 7 298
1972228N10250 1972 74 EP MM ESTELLE 1972-08-17 06:00:00 TS 15.5183 -119.419 40 hurdat_epa main 1279 1276 O________OP___ hurdat_epa EP051972 15.5000 -119.400 TS 40 0 15.5000 -119.400 TC 40 15.5917 -119.497 2 6 286
1972228N10250 1972 74 EP MM ESTELLE 1972-08-17 09:00:00 TS 15.6091 -119.754 main 1296 1293 P________PP___ EP051972 15.6000 -119.743 TS 40 0 15.6000 -119.743 TC 40 15.6454 -119.801 2 7 286
1972228N10250 1972 74 EP MM ESTELLE 1972-08-17 12:00:00 TS 15.7000 -120.100 40 hurdat_epa main 1306 1304 O________OO___ hurdat_epa EP051972 15.7000 -120.100 TS 40 0 15.7000 -120.100 TC 40 15.7000 -120.100 2 7 289
1972228N10250 1972 74 EP MM ESTELLE 1972-08-17 15:00:00 TS 15.8442 -120.460 main 1325 1316 P________PP___ EP051972 15.8350 -120.458 TS 42 0 15.8350 -120.458 TC 42 15.8811 -120.469 2 8 295
1972228N10250 1972 74 EP MM ESTELLE 1972-08-17 18:00:00 TS 16.0146 -120.806 45 hurdat_epa main 1329 1326 O________OP___ hurdat_epa EP051972 16.0000 -120.800 TS 45 0 16.0000 -120.800 TC 45 16.0728 -120.832 2 8 300
1972228N10250 1972 74 EP MM ESTELLE 1972-08-17 21:00:00 TS 16.2226 -121.147 main 1334 1332 P________PP___ EP051972 16.2150 -121.145 TS 45 0 16.2150 -121.145 TC 45 16.2530 -121.154 2 7 304
1972228N10250 1972 74 EP MM ESTELLE 1972-08-18 00:00:00 TS 16.4000 -121.400 45 hurdat_epa main 1340 1339 O________OO___ hurdat_epa EP051972 16.4000 -121.400 TS 45 0 16.4000 -121.400 TC 45 16.4000 -121.400 2 4 307
1972228N10250 1972 74 EP MM ESTELLE 1972-08-18 03:00:00 TS 16.4751 -121.495 main 1339 1339 P________PP___ EP051972 16.4724 -121.488 TS 45 0 16.4724 -121.488 TC 45 16.4856 -121.525 2 2 315
1972228N10250 1972 74 EP MM ESTELLE 1972-08-18 06:00:00 TS 16.5074 -121.515 45 hurdat_epa main 1339 1339 O________OP___ hurdat_epa EP051972 16.5000 -121.500 TS 45 0 16.5000 -121.500 TC 45 16.5371 -121.575 2 1 325
1972228N10250 1972 74 EP MM ESTELLE 1972-08-18 09:00:00 TS 16.5540 -121.558 main 1339 1339 P________PP___ EP051972 16.5500 -121.550 TS 50 0 16.5500 -121.550 TC 50 16.5701 -121.588 2 1 321
1972228N10250 1972 74 EP MM ESTELLE 1972-08-18 12:00:00 TS 16.6000 -121.600 55 hurdat_epa main 1339 1339 O________OO___ hurdat_epa EP051972 16.6000 -121.600 TS 55 0 16.6000 -121.600 TC 55 16.6000 -121.600 2 1 320
1972228N10250 1972 74 EP MM ESTELLE 1972-08-18 15:00:00 TS 16.6443 -121.644 main 1339 1339 P________PP___ EP051972 16.6500 -121.643 TS 55 0 16.6500 -121.643 TC 55 16.6215 -121.652 2 1 313
1972228N10250 1972 74 EP MM ESTELLE 1972-08-18 18:00:00 TS 16.6895 -121.703 55 hurdat_epa main 1339 1339 O________OP___ hurdat_epa EP051972 16.7000 -121.700 TS 55 0 16.7000 -121.700 TC 55 16.6474 -121.713 2 2 302
1972228N10250 1972 74 EP MM ESTELLE 1972-08-18 21:00:00 TS 16.7279 -121.787 main 1346 1339 P________PP___ EP051972 16.7350 -121.785 TS 57 0 16.7350 -121.785 TC 57 16.6996 -121.792 2 2 300
1972228N10250 1972 74 EP MM ESTELLE 1972-08-19 00:00:00 TS 16.8000 -121.900 60 hurdat_epa main 1346 1346 O________OO___ hurdat_epa EP051972 16.8000 -121.900 TS 60 0 16.8000 -121.900 TC 60 16.8000 -121.900 2 3 309
1972228N10250 1972 74 EP MM ESTELLE 1972-08-19 03:00:00 TS 16.9225 -122.037 main 1347 1347 P________PP___ EP051972 16.9125 -122.035 TS 60 0 16.9125 -122.035 TC 60 16.9626 -122.046 2 4 317
1972228N10250 1972 74 EP MM ESTELLE 1972-08-19 06:00:00 TS 17.1150 -122.204 60 hurdat_epa main 1347 1340 O________OP___ hurdat_epa EP051972 17.1000 -122.200 TS 60 0 17.1000 -122.200 TC 60 17.1751 -122.220 2 6 324
1972228N10250 1972 74 EP MM ESTELLE 1972-08-19 09:00:00 TS 17.3870 -122.396 main 1342 1334 P________PP___ EP051972 17.3775 -122.392 TS 60 0 17.3775 -122.392 TC 60 17.4251 -122.409 2 7 327
1972228N10250 1972 74 EP MM ESTELLE 1972-08-19 12:00:00 TS 17.7000 -122.600 60 hurdat_epa main 1337 1330 O________OO___ hurdat_epa EP051972 17.7000 -122.600 TS 60 0 17.7000 -122.600 TC 60 17.7000 -122.600 2 7 328
1972228N10250 1972 74 EP MM ESTELLE 1972-08-19 15:00:00 TS 17.9965 -122.800 main 1333 1327 P________PP___ EP051972 18.0000 -122.808 TS 62 0 18.0000 -122.808 TC 62 17.9824 -122.771 2 7 328
1972228N10250 1972 74 EP MM ESTELLE 1972-08-19 18:00:00 TS 18.2970 -122.989 65 hurdat_epa main 1328 1309 O________OP___ hurdat_epa EP051972 18.3000 -123.000 HU 65 1 18.3000 -123.000 TC 65 18.2849 -122.943 2 7 332
1972228N10250 1972 74 EP MM ESTELLE 1972-08-19 21:00:00 TS 18.5989 -123.144 main 1309 1297 P________PP___ EP051972 18.5999 -123.150 HU 67 1 18.5999 -123.150 TC 67 18.5949 -123.118 2 7 334
1972228N10250 1972 74 EP MM ESTELLE 1972-08-20 00:00:00 TS 18.9000 -123.300 70 hurdat_epa main 1297 1285 O________OO___ hurdat_epa EP051972 18.9000 -123.300 HU 70 1 18.9000 -123.300 TC 70 18.9000 -123.300 3 7 332
1972228N10250 1972 74 EP MM ESTELLE 1972-08-20 03:00:00 TS 19.1958 -123.481 main 1285 1273 P________PP___ EP051972 19.2075 -123.493 HU 70 1 19.2075 -123.493 TC 70 19.1490 -123.437 3 7 328
1972228N10250 1972 74 EP MM ESTELLE 1972-08-20 06:00:00 TS 19.4793 -123.678 70 hurdat_epa main 1273 1264 O________OP___ hurdat_epa EP051972 19.5000 -123.700 HU 70 1 19.5000 -123.700 TC 70 19.3964 -123.590 3 6 327
1972228N10250 1972 74 EP MM ESTELLE 1972-08-20 09:00:00 TS 19.7099 -123.838 main 1264 1262 P________PP___ EP051972 19.7197 -123.848 HU 67 1 19.7197 -123.848 TC 67 19.6706 -123.797 3 7 323
1972228N10250 1972 74 EP MM ESTELLE 1972-08-20 12:00:00 TS 20.0000 -124.100 65 hurdat_epa main 1262 1261 O________OO___ hurdat_epa EP051972 20.0000 -124.100 HU 65 1 20.0000 -124.100 TC 65 20.0000 -124.100 4 10 317
1972228N10250 1972 74 EP MM ESTELLE 1972-08-20 15:00:00 TS 20.4631 -124.590 main 1262 1262 P________PP___ EP051972 20.4702 -124.597 HU 62 0 20.4702 -124.597 TC 62 20.4347 -124.560 4 14 314
1972228N10250 1972 74 EP MM ESTELLE 1972-08-20 18:00:00 TS 20.9843 -125.183 60 hurdat_epa main 1274 1274 O________OP___ hurdat_epa EP051972 21.0000 -125.200 TS 60 0 21.0000 -125.200 TC 60 20.9213 -125.115 4 15 313
1972228N10250 1972 74 EP MM ESTELLE 1972-08-20 21:00:00 TS 21.4624 -125.755 main 1291 1291 P________PP___ EP051972 21.4725 -125.765 TS 60 0 21.4725 -125.765 TC 60 21.4222 -125.713 4 14 311
1972228N10250 1972 74 EP MM ESTELLE 1972-08-21 00:00:00 TS 21.9000 -126.300 60 hurdat_epa main 1310 1310 O________OO___ hurdat_epa EP051972 21.9000 -126.300 TS 60 0 21.9000 -126.300 TC 60 21.9000 -126.300 2 12 311
1972228N10250 1972 74 EP MM ESTELLE 1972-08-21 03:00:00 TS 22.2646 -126.761 main 1331 1331 P________PP___ EP051972 22.2572 -126.758 TS 60 0 22.2572 -126.758 TC 60 22.2942 -126.771 2 11 310
1972228N10250 1972 74 EP MM ESTELLE 1972-08-21 06:00:00 TS 22.6126 -127.205 60 hurdat_epa main 1351 1351 O________OP___ hurdat_epa EP051972 22.6000 -127.200 TS 60 0 22.6000 -127.200 TC 60 22.6630 -127.223 2 11 311
1972228N10250 1972 74 EP MM ESTELLE 1972-08-21 09:00:00 TS 22.9928 -127.674 main 1378 1378 P________PP___ EP051972 22.9847 -127.670 TS 60 0 22.9847 -127.670 TC 60 23.0253 -127.689 2 12 311
1972228N10250 1972 74 EP MM ESTELLE 1972-08-21 12:00:00 TS 23.4000 -128.200 60 hurdat_epa main 1406 1406 O________OO___ hurdat_epa EP051972 23.4000 -128.200 TS 60 0 23.4000 -128.200 TC 60 23.4000 -128.200 2 14 309
1972228N10250 1972 74 EP MM ESTELLE 1972-08-21 15:00:00 TS 23.8430 -128.824 main 1429 1420 P________PP___ EP051972 23.8500 -128.828 TS 52 0 23.8500 -128.828 TC 52 23.8150 -128.808 2 15 307
1972228N10250 1972 74 EP MM ESTELLE 1972-08-21 18:00:00 TS 24.2886 -129.492 45 hurdat_epa main 1423 1420 O________OP___ hurdat_epa EP051972 24.3000 -129.500 TS 45 0 24.3000 -129.500 TC 45 24.2430 -129.462 2 15 305
1972228N10250 1972 74 EP MM ESTELLE 1972-08-21 21:00:00 TS 24.7007 -130.154 main 1430 1425 P________PP___ EP051972 24.7073 -130.158 TS 42 0 24.7073 -130.158 TC 42 24.6743 -130.136 2 14 304
1972228N10250 1972 74 EP MM ESTELLE 1972-08-22 00:00:00 TS 25.1000 -130.800 40 hurdat_epa main 1434 1431 O________OO___ hurdat_epa EP051972 25.1000 -130.800 TS 40 0 25.1000 -130.800 TC 40 25.1000 -130.800 2 14 305
1972228N10250 1972 74 EP MM ESTELLE 1972-08-22 03:00:00 TS 25.5024 -131.413 main 1442 1440 P________PP___ EP051972 25.4997 -131.408 TS 40 0 25.4997 -131.408 TC 40 25.5134 -131.432 2 14 306
1972228N10250 1972 74 EP MM ESTELLE 1972-08-22 06:00:00 TS 25.9032 -132.007 40 hurdat_epa main 1453 1453 O________OP___ hurdat_epa EP051972 25.9000 -132.000 TS 40 0 25.9000 -132.000 TC 40 25.9158 -132.035 2 13 307
1972228N10250 1972 74 EP MM ESTELLE 1972-08-22 09:00:00 TS 26.3025 -132.602 main 1468 1468 P________PP___ EP051972 26.3006 -132.597 TS 37 0 26.3006 -132.597 TC 37 26.3104 -132.621 2 13 307
1972228N10250 1972 74 EP MM ESTELLE 1972-08-22 12:00:00 TS 26.7000 -133.200 35 hurdat_epa main 1485 O________OO___ hurdat_epa EP051972 26.7000 -133.200 TS 35 0 26.7000 -133.200 TC 35 26.7000 -133.200 6 13 307

About IBTrACS Database

This database is a web-friendly format of International Best Track Archive for Climate Stewardship (IBTrACS), a global best track data archive curated by NOAA dating back to 1842.

Updated: 2021-12-06